Charlottesville Albemarle Airport
KCHO : now visible

Airfield :











YOU CAN JOIN US ON...

 
LOGIN :

Register | Disclaimer

   EN    FR    IT 

 









Legend :    VFR   Marginal VFR   IFR   Intensive IFR   Very Intensive IFR
Visi :
Ceiling :
>= 8 km
>= 3000ft
5 to 8 km
1000 to 3000 ft
1500m to 5 km
500 to 1000 ft
800 to 1500m
200 to 500 ft
< 800m
< 200 ft
Symbols :   Thunderstorms  Fog  Heavy snow  Heavy precipitations  Wind > 20 kt






- Airport Elevation : 639 ft
- IATA code : CHO


KCHO - Charlottesville Albemarle

CURRENT METAR :
  • 250601Z AUTO 00000KT 2 1/2SM BR CLR 19/18 A2987 RMK AO2 T01940178

EXPIRED METARs :
  • 250453Z AUTO 20003KT 7SM CLR 20/18 A2989 RMK AO2 SLP114 T02000183 402830194
  • 250353Z AUTO 29003KT 10SM CLR 21/18 A2990 RMK AO2 SLP117 T02060183
  • 250253Z 00000KT 10SM CLR 21/18 A2991 RMK AO2 SLP120 T02110178 51020
  • 250153Z 20004KT 10SM CLR 23/18 A2990 RMK AO2 SLP116 T02330178

TAF KCHO
Valid from the 25 at 06:00 until the 26 at 06:00 UTC


250522Z 2506/2606 00000KT P6SM SCT250
FM250900 00000KT 4SM BR SCT250
FM251700 18003KT P6SM SCT070
FM252300 00000KT P6SM BKN080
KZDC FIR / North America



MET'MAP, your aeronautical weather chart ! - Copyright ORBIFLY December 2007 - Disclaimer

ORBIFLY MET'MAP TEAM :

Programming & Development : Alexandra Zaïnal
Original concept : Baudouin d'Aumeries
Technical & hardware support : Manuel Goepfert
Assistance : Marc-Olivier Méhu




SOURCES & CREDITS :

   NOAA       Earth
Advisory